createdAt,value
2022-10-13T00:04:41.421Z,8.80
2022-10-13T00:10:10.497Z,8.70
2022-10-13T00:15:49.792Z,8.70
2022-10-13T00:21:28.617Z,8.70
2022-10-13T00:26:57.637Z,8.60
2022-10-13T00:32:26.457Z,8.60
2022-10-13T00:37:59.255Z,8.50
2022-10-13T00:44:48.653Z,8.40
2022-10-13T00:50:55.863Z,8.40
2022-10-13T00:56:28.869Z,8.40
2022-10-13T01:02:11.315Z,8.40
2022-10-13T01:07:45.122Z,8.40
2022-10-13T01:14:04.306Z,8.30
2022-10-13T01:20:11.219Z,8.30
2022-10-13T01:26:15.755Z,8.20
2022-10-13T01:32:10.068Z,8.20
2022-10-13T01:37:56.688Z,8.10
2022-10-13T01:43:47.176Z,8.10
2022-10-13T01:49:26.050Z,8.10
2022-10-13T01:55:04.995Z,8.00
2022-10-13T02:00:54.077Z,7.90
2022-10-13T02:07:15.287Z,7.90
2022-10-13T02:13:05.323Z,7.90
2022-10-13T02:18:36.281Z,7.80
2022-10-13T02:24:11.140Z,7.80
2022-10-13T02:30:02.468Z,7.70
2022-10-13T02:35:34.447Z,7.70
2022-10-13T02:41:03.669Z,7.70
2022-10-13T02:46:32.167Z,7.70
2022-10-13T02:52:02.106Z,7.60
2022-10-13T02:57:35.415Z,7.60
2022-10-13T03:03:10.465Z,7.60
2022-10-13T03:08:39.381Z,7.50
2022-10-13T03:14:15.871Z,7.50
2022-10-13T03:19:47.132Z,7.50
2022-10-13T03:25:22.392Z,7.50
2022-10-13T03:31:18.064Z,7.40
2022-10-13T03:36:48.664Z,7.40
2022-10-13T03:42:20.426Z,7.30
2022-10-13T03:47:50.662Z,7.30
2022-10-13T03:53:29.550Z,7.30
2022-10-13T03:59:02.351Z,7.30
2022-10-13T04:04:31.116Z,7.40
2022-10-13T04:10:14.010Z,7.40
2022-10-13T04:15:48.939Z,7.40
2022-10-13T04:21:17.243Z,7.50
2022-10-13T04:26:48.917Z,7.50
2022-10-13T04:32:22.023Z,7.60
2022-10-13T04:37:51.143Z,7.60
2022-10-13T04:43:22.714Z,7.70
2022-10-13T04:48:53.874Z,7.70
2022-10-13T04:54:38.921Z,7.80
2022-10-13T05:00:08.795Z,7.80
2022-10-13T05:05:43.028Z,7.80
2022-10-13T05:11:18.196Z,7.70
2022-10-13T05:16:53.258Z,7.70
2022-10-13T05:22:23.396Z,7.70
2022-10-13T05:27:58.144Z,7.80
2022-10-13T05:33:39.032Z,7.90
2022-10-13T05:39:10.595Z,8.00
2022-10-13T05:44:46.382Z,8.10
2022-10-13T05:50:19.630Z,8.20
2022-10-13T05:55:51.407Z,8.30
2022-10-13T06:01:27.404Z,8.50
2022-10-13T06:06:56.451Z,8.60
2022-10-13T06:12:27.105Z,8.70
2022-10-13T06:18:02.985Z,8.80
2022-10-13T06:23:31.780Z,8.90
2022-10-13T06:29:01.466Z,9.10
2022-10-13T06:34:43.431Z,9.20
2022-10-13T06:40:15.814Z,9.40
2022-10-13T06:45:46.973Z,9.50
2022-10-13T06:51:19.299Z,9.60
2022-10-13T06:56:51.665Z,9.80
2022-10-13T07:02:20.410Z,9.90
2022-10-13T07:07:55.013Z,10.00
2022-10-13T07:13:26.489Z,10.20
2022-10-13T07:18:55.807Z,10.30
2022-10-13T07:24:25.851Z,10.40
2022-10-13T07:29:54.555Z,10.60
2022-10-13T07:35:32.778Z,10.70
2022-10-13T07:41:08.548Z,10.80
2022-10-13T07:46:37.340Z,11.00
2022-10-13T07:52:08.152Z,11.20
2022-10-13T07:57:39.582Z,11.30
2022-10-13T08:03:08.390Z,11.30
2022-10-13T08:08:38.942Z,11.50
2022-10-13T08:14:07.642Z,11.60
2022-10-13T08:19:40.026Z,11.60
2022-10-13T08:25:11.098Z,11.80
2022-10-13T08:30:43.003Z,11.90
2022-10-13T08:36:19.875Z,12.00
2022-10-13T08:48:07.297Z,12.10
2022-10-13T08:53:45.218Z,12.20
2022-10-13T08:59:22.175Z,12.20
2022-10-13T09:04:54.878Z,12.30
2022-10-13T09:10:26.143Z,12.50
2022-10-13T09:15:59.574Z,12.60
2022-10-13T09:21:33.294Z,12.70
2022-10-13T09:27:16.733Z,13.00
2022-10-13T09:32:45.255Z,13.20
2022-10-13T09:38:28.068Z,13.50
2022-10-13T09:43:59.337Z,13.70
2022-10-13T09:49:40.638Z,13.90
2022-10-13T09:55:36.784Z,14.00
2022-10-13T10:01:07.952Z,14.10
2022-10-13T10:06:38.402Z,14.40
2022-10-13T10:12:11.101Z,14.40
2022-10-13T10:18:03.975Z,14.40
2022-10-13T10:24:01.452Z,14.40
2022-10-13T10:29:47.666Z,14.30
2022-10-13T10:36:04.600Z,14.10
2022-10-13T10:41:57.472Z,14.30
2022-10-13T10:47:36.619Z,14.40
2022-10-13T10:54:02.771Z,14.40
2022-10-13T11:00:08.067Z,14.50
2022-10-13T11:06:03.567Z,14.60
2022-10-13T11:11:57.076Z,14.70
2022-10-13T11:17:34.452Z,14.90
2022-10-13T11:23:10.652Z,15.00
2022-10-13T11:28:45.747Z,15.00
2022-10-13T11:34:34.790Z,15.30
2022-10-13T11:41:07.801Z,15.70
2022-10-13T11:47:31.905Z,15.90
2022-10-13T11:53:16.482Z,16.30
2022-10-13T11:58:46.908Z,16.40
2022-10-13T12:04:16.581Z,16.60
2022-10-13T12:09:56.531Z,16.50
2022-10-13T12:15:36.813Z,16.20
2022-10-13T12:21:13.842Z,16.10
2022-10-13T12:26:45.992Z,16.20
2022-10-13T12:32:36.121Z,16.20
2022-10-13T12:38:21.902Z,16.10
2022-10-13T12:44:01.064Z,16.10
2022-10-13T12:49:43.668Z,16.10
2022-10-13T12:55:21.301Z,16.20
2022-10-13T13:01:15.668Z,16.10
2022-10-13T13:07:38.377Z,16.20
2022-10-13T13:13:30.228Z,16.30
2022-10-13T13:19:01.796Z,16.40
2022-10-13T13:24:41.228Z,16.50
2022-10-13T13:30:24.911Z,16.80
2022-10-13T13:35:58.231Z,17.00
2022-10-13T13:41:31.233Z,17.00
2022-10-13T13:47:03.625Z,17.00
2022-10-13T13:52:35.212Z,17.00
2022-10-13T13:58:06.907Z,17.00
2022-10-13T14:03:35.684Z,17.00
2022-10-13T14:09:12.685Z,17.00
2022-10-13T14:14:42.314Z,16.80
2022-10-13T14:20:14.602Z,16.70
2022-10-13T14:25:43.615Z,16.60
2022-10-13T14:31:21.353Z,16.50
2022-10-13T14:36:50.141Z,16.50
2022-10-13T14:42:25.807Z,16.50
2022-10-13T14:47:59.527Z,16.50
2022-10-13T14:53:31.630Z,16.50
2022-10-13T14:59:07.697Z,16.60
2022-10-13T15:04:49.713Z,16.70
2022-10-13T15:10:42.266Z,16.70
2022-10-13T15:16:43.753Z,16.70
2022-10-13T15:22:12.464Z,16.70
2022-10-13T15:27:42.231Z,16.60
2022-10-13T15:33:14.735Z,16.50
2022-10-13T15:38:51.689Z,16.30
2022-10-13T15:44:28.109Z,16.20
2022-10-13T15:50:05.833Z,16.10
2022-10-13T15:55:39.506Z,15.90
2022-10-13T16:01:15.978Z,15.80
2022-10-13T16:06:53.920Z,15.70
2022-10-13T16:12:25.373Z,15.60
2022-10-13T16:18:03.762Z,15.40
2022-10-13T16:23:37.894Z,15.30
2022-10-13T16:29:13.316Z,15.20
2022-10-13T16:34:48.164Z,15.10
2022-10-13T16:40:21.445Z,15.00
2022-10-13T16:46:05.961Z,14.90
2022-10-13T16:51:38.429Z,14.80
2022-10-13T16:57:16.353Z,14.80
2022-10-13T17:02:49.458Z,14.70
2022-10-13T17:08:22.751Z,14.60
2022-10-13T17:13:57.708Z,14.60
2022-10-13T17:19:30.425Z,14.50
2022-10-13T17:25:02.124Z,14.50
2022-10-13T17:30:33.485Z,14.40
2022-10-13T17:36:14.539Z,14.40
2022-10-13T17:41:44.233Z,14.30
2022-10-13T17:47:19.675Z,14.30
2022-10-13T17:52:53.395Z,14.20
2022-10-13T17:58:25.748Z,14.20
2022-10-13T18:04:05.958Z,14.10
2022-10-13T18:09:36.678Z,14.00
2022-10-13T18:15:07.556Z,13.90
2022-10-13T18:26:38.670Z,13.80
2022-10-13T18:32:09.177Z,13.70
2022-10-13T18:37:39.148Z,13.60
2022-10-13T18:43:09.391Z,13.50
2022-10-13T18:48:44.583Z,13.40
2022-10-13T18:54:19.089Z,13.30
2022-10-13T18:59:51.460Z,13.20
2022-10-13T19:05:31.473Z,13.10
2022-10-13T19:11:19.939Z,13.00
2022-10-13T19:16:51.905Z,12.90
2022-10-13T19:22:25.704Z,12.90
2022-10-13T19:28:03.340Z,12.70
2022-10-13T19:33:34.256Z,12.70
2022-10-13T19:39:19.418Z,12.60
2022-10-13T19:45:01.830Z,12.50
2022-10-13T19:50:39.795Z,12.40
2022-10-13T19:56:34.376Z,12.30
2022-10-13T20:02:07.568Z,12.30
2022-10-13T20:07:36.419Z,12.20
2022-10-13T20:13:11.380Z,12.20
2022-10-13T20:18:50.383Z,12.10
2022-10-13T20:24:28.510Z,12.10
2022-10-13T20:30:02.018Z,12.00
2022-10-13T20:35:49.556Z,12.00
2022-10-13T20:41:30.384Z,12.00
2022-10-13T20:47:03.341Z,12.00
2022-10-13T20:52:41.272Z,12.00
2022-10-13T20:58:12.538Z,12.00
2022-10-13T21:03:45.124Z,12.00
2022-10-13T21:09:16.769Z,12.00
2022-10-13T21:14:50.324Z,12.00
2022-10-13T21:20:21.973Z,12.00
2022-10-13T21:25:53.787Z,12.00
2022-10-13T21:31:26.445Z,12.00
2022-10-13T21:37:00.507Z,12.00
2022-10-13T21:42:46.496Z,11.90
2022-10-13T21:48:18.765Z,12.00
2022-10-13T21:53:57.396Z,12.00
2022-10-13T21:59:33.209Z,12.00
2022-10-13T22:05:20.502Z,12.00
2022-10-13T22:10:49.513Z,12.00
2022-10-13T22:16:25.802Z,11.90
2022-10-13T22:21:54.046Z,11.90
2022-10-13T22:27:22.155Z,11.90
2022-10-13T22:32:50.120Z,11.90
2022-10-13T22:38:17.904Z,11.90
2022-10-13T22:43:53.591Z,11.90
2022-10-13T22:49:21.371Z,11.90
2022-10-13T22:54:49.136Z,11.90
2022-10-13T23:00:17.099Z,11.90
2022-10-13T23:05:48.882Z,11.90
2022-10-13T23:11:18.791Z,11.90
2022-10-13T23:16:46.650Z,11.80
2022-10-13T23:22:14.427Z,11.80
2022-10-13T23:27:42.797Z,11.80
2022-10-13T23:33:10.528Z,11.80
2022-10-13T23:38:38.918Z,11.80
2022-10-13T23:44:06.720Z,11.80
2022-10-13T23:49:34.460Z,11.80
2022-10-13T23:55:02.306Z,11.80
